sensor_id;sensor_type;location;lat;lon;timestamp;P1;durP1;ratioP1;P2;durP2;ratioP2
35699;SDS011;21818;51.078;12.108;2022-10-18T00:02:03;4.97;;;3.03;;
35699;SDS011;21818;51.078;12.108;2022-10-18T00:04:29;6.28;;;3.20;;
35699;SDS011;21818;51.078;12.108;2022-10-18T00:06:55;5.15;;;2.90;;
35699;SDS011;21818;51.078;12.108;2022-10-18T00:09:20;10.25;;;3.90;;
35699;SDS011;21818;51.078;12.108;2022-10-18T00:11:46;7.38;;;3.03;;
35699;SDS011;21818;51.078;12.108;2022-10-18T00:14:11;4.18;;;2.92;;
35699;SDS011;21818;51.078;12.108;2022-10-18T00:16:37;6.13;;;3.25;;
35699;SDS011;21818;51.078;12.108;2022-10-18T00:19:03;6.15;;;3.00;;
35699;SDS011;21818;51.078;12.108;2022-10-18T00:21:28;5.40;;;2.88;;
35699;SDS011;21818;51.078;12.108;2022-10-18T00:23:54;4.32;;;2.90;;
35699;SDS011;21818;51.078;12.108;2022-10-18T00:26:21;4.30;;;2.92;;
35699;SDS011;21818;51.078;12.108;2022-10-18T00:28:50;4.22;;;2.75;;
35699;SDS011;21818;51.078;12.108;2022-10-18T00:31:19;4.72;;;3.15;;
35699;SDS011;21818;51.078;12.108;2022-10-18T00:33:51;8.48;;;3.10;;
35699;SDS011;21818;51.078;12.108;2022-10-18T00:36:19;9.18;;;2.90;;
35699;SDS011;21818;51.078;12.108;2022-10-18T00:38:44;6.55;;;3.13;;
35699;SDS011;21818;51.078;12.108;2022-10-18T00:41:11;4.90;;;2.90;;
35699;SDS011;21818;51.078;12.108;2022-10-18T00:43:55;4.18;;;2.65;;
35699;SDS011;21818;51.078;12.108;2022-10-18T00:49:33;4.85;;;2.78;;
35699;SDS011;21818;51.078;12.108;2022-10-18T00:52:02;7.00;;;3.20;;
35699;SDS011;21818;51.078;12.108;2022-10-18T00:54:31;6.95;;;3.30;;
35699;SDS011;21818;51.078;12.108;2022-10-18T00:56:58;6.30;;;2.70;;
35699;SDS011;21818;51.078;12.108;2022-10-18T00:59:25;6.68;;;3.33;;
35699;SDS011;21818;51.078;12.108;2022-10-18T01:01:51;6.35;;;3.20;;
35699;SDS011;21818;51.078;12.108;2022-10-18T01:04:18;5.43;;;3.08;;
35699;SDS011;21818;51.078;12.108;2022-10-18T01:13:49;7.47;;;3.08;;
35699;SDS011;21818;51.078;12.108;2022-10-18T01:18:56;5.70;;;3.10;;
35699;SDS011;21818;51.078;12.108;2022-10-18T01:26:47;5.28;;;3.00;;
35699;SDS011;21818;51.078;12.108;2022-10-18T01:32:02;5.35;;;2.85;;
35699;SDS011;21818;51.078;12.108;2022-10-18T01:34:34;5.35;;;3.30;;
35699;SDS011;21818;51.078;12.108;2022-10-18T01:37:03;4.97;;;3.08;;
35699;SDS011;21818;51.078;12.108;2022-10-18T01:39:34;8.38;;;3.40;;
35699;SDS011;21818;51.078;12.108;2022-10-18T01:42:04;6.18;;;3.58;;
35699;SDS011;21818;51.078;12.108;2022-10-18T01:44:33;3.97;;;2.78;;
35699;SDS011;21818;51.078;12.108;2022-10-18T01:47:00;5.78;;;2.97;;
35699;SDS011;21818;51.078;12.108;2022-10-18T01:49:28;12.82;;;3.70;;
35699;SDS011;21818;51.078;12.108;2022-10-18T01:51:53;6.28;;;2.85;;
35699;SDS011;21818;51.078;12.108;2022-10-18T01:54:21;6.22;;;3.22;;
35699;SDS011;21818;51.078;12.108;2022-10-18T01:56:57;5.82;;;3.08;;
35699;SDS011;21818;51.078;12.108;2022-10-18T02:02:20;7.67;;;3.23;;
35699;SDS011;21818;51.078;12.108;2022-10-18T02:05:12;8.57;;;3.58;;
35699;SDS011;21818;51.078;12.108;2022-10-18T02:08:05;6.93;;;3.00;;
35699;SDS011;21818;51.078;12.108;2022-10-18T02:11:09;6.05;;;3.42;;
35699;SDS011;21818;51.078;12.108;2022-10-18T02:13:38;7.32;;;3.15;;
35699;SDS011;21818;51.078;12.108;2022-10-18T02:16:19;5.63;;;3.42;;
35699;SDS011;21818;51.078;12.108;2022-10-18T02:18:48;3.60;;;2.58;;
35699;SDS011;21818;51.078;12.108;2022-10-18T02:21:21;5.80;;;3.55;;
35699;SDS011;21818;51.078;12.108;2022-10-18T02:23:49;6.63;;;3.70;;
35699;SDS011;21818;51.078;12.108;2022-10-18T02:26:15;9.60;;;5.10;;
35699;SDS011;21818;51.078;12.108;2022-10-18T02:28:41;9.38;;;3.97;;
35699;SDS011;21818;51.078;12.108;2022-10-18T02:34:06;9.82;;;4.40;;
35699;SDS011;21818;51.078;12.108;2022-10-18T02:36:53;6.47;;;3.40;;
35699;SDS011;21818;51.078;12.108;2022-10-18T02:39:22;4.47;;;3.47;;
35699;SDS011;21818;51.078;12.108;2022-10-18T02:41:52;5.45;;;3.40;;
35699;SDS011;21818;51.078;12.108;2022-10-18T02:44:19;6.30;;;3.92;;
35699;SDS011;21818;51.078;12.108;2022-10-18T02:46:44;9.18;;;3.70;;
35699;SDS011;21818;51.078;12.108;2022-10-18T02:49:11;9.88;;;3.90;;
35699;SDS011;21818;51.078;12.108;2022-10-18T02:51:37;5.10;;;3.22;;
35699;SDS011;21818;51.078;12.108;2022-10-18T02:54:02;8.45;;;3.63;;
35699;SDS011;21818;51.078;12.108;2022-10-18T02:56:28;6.10;;;3.60;;
35699;SDS011;21818;51.078;12.108;2022-10-18T02:58:54;6.93;;;3.75;;
35699;SDS011;21818;51.078;12.108;2022-10-18T03:01:20;7.20;;;3.38;;
35699;SDS011;21818;51.078;12.108;2022-10-18T03:03:45;6.18;;;3.58;;
35699;SDS011;21818;51.078;12.108;2022-10-18T03:06:11;5.40;;;3.38;;
35699;SDS011;21818;51.078;12.108;2022-10-18T03:08:36;11.07;;;5.82;;
35699;SDS011;21818;51.078;12.108;2022-10-18T03:11:02;9.43;;;4.95;;
35699;SDS011;21818;51.078;12.108;2022-10-18T03:13:28;7.72;;;4.38;;
35699;SDS011;21818;51.078;12.108;2022-10-18T03:15:53;10.02;;;3.72;;
35699;SDS011;21818;51.078;12.108;2022-10-18T03:18:19;5.55;;;3.88;;
35699;SDS011;21818;51.078;12.108;2022-10-18T03:20:44;9.15;;;4.28;;
35699;SDS011;21818;51.078;12.108;2022-10-18T03:23:10;7.00;;;3.60;;
35699;SDS011;21818;51.078;12.108;2022-10-18T03:25:36;5.50;;;3.25;;
35699;SDS011;21818;51.078;12.108;2022-10-18T03:28:01;4.85;;;3.50;;
35699;SDS011;21818;51.078;12.108;2022-10-18T03:30:27;7.70;;;3.55;;
35699;SDS011;21818;51.078;12.108;2022-10-18T03:32:53;10.52;;;3.90;;
35699;SDS011;21818;51.078;12.108;2022-10-18T03:35:18;7.40;;;4.13;;
35699;SDS011;21818;51.078;12.108;2022-10-18T03:37:44;5.47;;;3.50;;
35699;SDS011;21818;51.078;12.108;2022-10-18T03:40:10;6.72;;;3.65;;
35699;SDS011;21818;51.078;12.108;2022-10-18T03:42:36;5.78;;;3.75;;
35699;SDS011;21818;51.078;12.108;2022-10-18T03:45:01;10.05;;;3.92;;
35699;SDS011;21818;51.078;12.108;2022-10-18T03:47:27;6.75;;;3.60;;
35699;SDS011;21818;51.078;12.108;2022-10-18T03:49:53;10.65;;;4.53;;
35699;SDS011;21818;51.078;12.108;2022-10-18T03:52:18;9.55;;;3.97;;
35699;SDS011;21818;51.078;12.108;2022-10-18T03:54:44;6.95;;;3.90;;
35699;SDS011;21818;51.078;12.108;2022-10-18T03:57:09;5.30;;;3.72;;
35699;SDS011;21818;51.078;12.108;2022-10-18T03:59:35;5.78;;;3.53;;
35699;SDS011;21818;51.078;12.108;2022-10-18T04:02:01;7.95;;;4.28;;
35699;SDS011;21818;51.078;12.108;2022-10-18T04:04:26;9.95;;;3.90;;
35699;SDS011;21818;51.078;12.108;2022-10-18T04:06:52;8.18;;;3.97;;
35699;SDS011;21818;51.078;12.108;2022-10-18T04:09:17;7.55;;;4.05;;
35699;SDS011;21818;51.078;12.108;2022-10-18T04:11:43;6.07;;;3.67;;
35699;SDS011;21818;51.078;12.108;2022-10-18T04:14:09;8.15;;;3.47;;
35699;SDS011;21818;51.078;12.108;2022-10-18T04:16:34;8.43;;;4.03;;
35699;SDS011;21818;51.078;12.108;2022-10-18T04:19:00;6.95;;;4.10;;
35699;SDS011;21818;51.078;12.108;2022-10-18T04:21:25;10.05;;;3.90;;
35699;SDS011;21818;51.078;12.108;2022-10-18T04:23:51;12.45;;;4.53;;
35699;SDS011;21818;51.078;12.108;2022-10-18T04:26:17;9.63;;;3.92;;
35699;SDS011;21818;51.078;12.108;2022-10-18T04:28:42;9.57;;;3.53;;
35699;SDS011;21818;51.078;12.108;2022-10-18T04:31:09;6.30;;;3.67;;
35699;SDS011;21818;51.078;12.108;2022-10-18T04:33:35;6.15;;;3.92;;
35699;SDS011;21818;51.078;12.108;2022-10-18T04:36:01;5.80;;;3.63;;
35699;SDS011;21818;51.078;12.108;2022-10-18T04:38:26;9.55;;;4.40;;
35699;SDS011;21818;51.078;12.108;2022-10-18T04:40:52;6.95;;;3.83;;
35699;SDS011;21818;51.078;12.108;2022-10-18T04:43:18;8.20;;;4.00;;
35699;SDS011;21818;51.078;12.108;2022-10-18T04:45:44;9.15;;;3.97;;
35699;SDS011;21818;51.078;12.108;2022-10-18T04:48:10;10.27;;;4.18;;
35699;SDS011;21818;51.078;12.108;2022-10-18T04:50:36;9.90;;;3.78;;
35699;SDS011;21818;51.078;12.108;2022-10-18T04:53:02;7.25;;;4.00;;
35699;SDS011;21818;51.078;12.108;2022-10-18T04:55:28;9.55;;;4.40;;
35699;SDS011;21818;51.078;12.108;2022-10-18T04:57:53;6.32;;;3.83;;
35699;SDS011;21818;51.078;12.108;2022-10-18T05:00:19;6.38;;;3.50;;
35699;SDS011;21818;51.078;12.108;2022-10-18T05:02:45;7.68;;;3.83;;
35699;SDS011;21818;51.078;12.108;2022-10-18T05:05:10;7.30;;;4.32;;
35699;SDS011;21818;51.078;12.108;2022-10-18T05:07:36;8.82;;;4.30;;
35699;SDS011;21818;51.078;12.108;2022-10-18T05:10:02;9.68;;;4.20;;
35699;SDS011;21818;51.078;12.108;2022-10-18T05:12:28;7.15;;;4.20;;
35699;SDS011;21818;51.078;12.108;2022-10-18T05:14:54;11.93;;;3.50;;
35699;SDS011;21818;51.078;12.108;2022-10-18T05:17:19;9.02;;;3.85;;
35699;SDS011;21818;51.078;12.108;2022-10-18T05:19:45;7.63;;;3.75;;
35699;SDS011;21818;51.078;12.108;2022-10-18T05:22:11;10.80;;;4.38;;
35699;SDS011;21818;51.078;12.108;2022-10-18T05:24:36;8.32;;;3.83;;
35699;SDS011;21818;51.078;12.108;2022-10-18T05:27:02;17.95;;;4.32;;
35699;SDS011;21818;51.078;12.108;2022-10-18T05:29:28;8.07;;;3.95;;
35699;SDS011;21818;51.078;12.108;2022-10-18T05:31:53;12.77;;;4.20;;
35699;SDS011;21818;51.078;12.108;2022-10-18T05:34:19;9.60;;;4.18;;
35699;SDS011;21818;51.078;12.108;2022-10-18T05:36:45;13.70;;;4.18;;
35699;SDS011;21818;51.078;12.108;2022-10-18T05:39:13;9.07;;;4.22;;
35699;SDS011;21818;51.078;12.108;2022-10-18T05:41:39;7.93;;;4.20;;
35699;SDS011;21818;51.078;12.108;2022-10-18T05:44:04;7.95;;;3.90;;
35699;SDS011;21818;51.078;12.108;2022-10-18T05:46:30;11.25;;;4.28;;
35699;SDS011;21818;51.078;12.108;2022-10-18T05:48:57;8.50;;;3.72;;
35699;SDS011;21818;51.078;12.108;2022-10-18T05:51:22;8.82;;;3.70;;
35699;SDS011;21818;51.078;12.108;2022-10-18T05:53:48;8.20;;;3.97;;
35699;SDS011;21818;51.078;12.108;2022-10-18T05:56:14;11.07;;;4.05;;
35699;SDS011;21818;51.078;12.108;2022-10-18T05:58:40;10.35;;;4.75;;
35699;SDS011;21818;51.078;12.108;2022-10-18T06:01:06;8.38;;;4.00;;
35699;SDS011;21818;51.078;12.108;2022-10-18T06:03:33;11.05;;;4.43;;
35699;SDS011;21818;51.078;12.108;2022-10-18T06:05:59;8.85;;;3.88;;
35699;SDS011;21818;51.078;12.108;2022-10-18T06:08:26;8.95;;;4.32;;
35699;SDS011;21818;51.078;12.108;2022-10-18T06:10:51;8.38;;;4.20;;
35699;SDS011;21818;51.078;12.108;2022-10-18T06:13:17;5.43;;;3.85;;
35699;SDS011;21818;51.078;12.108;2022-10-18T06:15:43;6.00;;;3.70;;
35699;SDS011;21818;51.078;12.108;2022-10-18T06:18:08;7.90;;;4.13;;
35699;SDS011;21818;51.078;12.108;2022-10-18T06:20:34;6.75;;;4.30;;
35699;SDS011;21818;51.078;12.108;2022-10-18T06:22:59;11.02;;;4.57;;
35699;SDS011;21818;51.078;12.108;2022-10-18T06:25:25;10.60;;;4.22;;
35699;SDS011;21818;51.078;12.108;2022-10-18T06:27:51;9.13;;;4.78;;
35699;SDS011;21818;51.078;12.108;2022-10-18T06:30:16;8.50;;;4.40;;
35699;SDS011;21818;51.078;12.108;2022-10-18T06:32:42;7.88;;;4.15;;
35699;SDS011;21818;51.078;12.108;2022-10-18T06:35:08;7.38;;;4.20;;
35699;SDS011;21818;51.078;12.108;2022-10-18T06:37:33;10.85;;;4.78;;
35699;SDS011;21818;51.078;12.108;2022-10-18T06:40:00;8.50;;;4.07;;
35699;SDS011;21818;51.078;12.108;2022-10-18T06:42:27;7.18;;;4.10;;
35699;SDS011;21818;51.078;12.108;2022-10-18T06:44:52;10.75;;;4.20;;
35699;SDS011;21818;51.078;12.108;2022-10-18T06:47:18;7.35;;;4.22;;
35699;SDS011;21818;51.078;12.108;2022-10-18T06:49:43;9.00;;;5.00;;
35699;SDS011;21818;51.078;12.108;2022-10-18T06:52:09;5.82;;;3.63;;
35699;SDS011;21818;51.078;12.108;2022-10-18T06:54:34;9.23;;;4.78;;
35699;SDS011;21818;51.078;12.108;2022-10-18T06:57:00;12.52;;;4.57;;
35699;SDS011;21818;51.078;12.108;2022-10-18T06:59:26;10.60;;;4.72;;
35699;SDS011;21818;51.078;12.108;2022-10-18T07:01:52;10.55;;;4.63;;
35699;SDS011;21818;51.078;12.108;2022-10-18T07:04:18;8.70;;;4.55;;
35699;SDS011;21818;51.078;12.108;2022-10-18T07:06:43;12.00;;;5.40;;
35699;SDS011;21818;51.078;12.108;2022-10-18T07:09:09;8.40;;;5.18;;
35699;SDS011;21818;51.078;12.108;2022-10-18T07:11:34;9.80;;;4.00;;
35699;SDS011;21818;51.078;12.108;2022-10-18T07:14:00;8.93;;;3.92;;
35699;SDS011;21818;51.078;12.108;2022-10-18T07:16:30;14.27;;;6.18;;
35699;SDS011;21818;51.078;12.108;2022-10-18T07:18:56;7.22;;;4.45;;
35699;SDS011;21818;51.078;12.108;2022-10-18T07:21:23;12.50;;;4.95;;
35699;SDS011;21818;51.078;12.108;2022-10-18T07:23:50;8.27;;;4.78;;
35699;SDS011;21818;51.078;12.108;2022-10-18T07:26:23;15.07;;;5.68;;
35699;SDS011;21818;51.078;12.108;2022-10-18T07:28:57;7.72;;;5.68;;
35699;SDS011;21818;51.078;12.108;2022-10-18T07:31:32;13.38;;;7.32;;
35699;SDS011;21818;51.078;12.108;2022-10-18T07:33:58;12.75;;;6.78;;
35699;SDS011;21818;51.078;12.108;2022-10-18T07:36:24;9.45;;;6.43;;
35699;SDS011;21818;51.078;12.108;2022-10-18T07:38:51;13.02;;;7.38;;
35699;SDS011;21818;51.078;12.108;2022-10-18T07:41:17;11.00;;;7.18;;
35699;SDS011;21818;51.078;12.108;2022-10-18T07:43:43;11.50;;;7.28;;
35699;SDS011;21818;51.078;12.108;2022-10-18T07:46:11;10.23;;;7.47;;
35699;SDS011;21818;51.078;12.108;2022-10-18T07:48:37;10.02;;;6.55;;
35699;SDS011;21818;51.078;12.108;2022-10-18T07:51:03;9.30;;;6.35;;
35699;SDS011;21818;51.078;12.108;2022-10-18T07:53:29;10.27;;;5.35;;
35699;SDS011;21818;51.078;12.108;2022-10-18T07:55:58;9.07;;;5.53;;
35699;SDS011;21818;51.078;12.108;2022-10-18T07:58:25;9.23;;;5.53;;
35699;SDS011;21818;51.078;12.108;2022-10-18T08:00:50;9.02;;;6.13;;
35699;SDS011;21818;51.078;12.108;2022-10-18T08:03:16;9.07;;;4.90;;
35699;SDS011;21818;51.078;12.108;2022-10-18T08:05:41;6.47;;;3.88;;
35699;SDS011;21818;51.078;12.108;2022-10-18T08:08:07;7.40;;;4.40;;
35699;SDS011;21818;51.078;12.108;2022-10-18T08:10:33;8.40;;;3.63;;
35699;SDS011;21818;51.078;12.108;2022-10-18T08:12:59;8.88;;;4.10;;
35699;SDS011;21818;51.078;12.108;2022-10-18T08:15:25;5.57;;;4.50;;
35699;SDS011;21818;51.078;12.108;2022-10-18T08:17:50;9.07;;;4.25;;
35699;SDS011;21818;51.078;12.108;2022-10-18T08:20:16;5.03;;;3.72;;
35699;SDS011;21818;51.078;12.108;2022-10-18T08:22:42;8.73;;;4.10;;
35699;SDS011;21818;51.078;12.108;2022-10-18T08:25:08;7.63;;;4.60;;
35699;SDS011;21818;51.078;12.108;2022-10-18T08:27:34;7.03;;;4.47;;
35699;SDS011;21818;51.078;12.108;2022-10-18T08:29:59;6.60;;;4.43;;
35699;SDS011;21818;51.078;12.108;2022-10-18T08:32:26;8.35;;;4.50;;
35699;SDS011;21818;51.078;12.108;2022-10-18T08:34:53;8.98;;;4.15;;
35699;SDS011;21818;51.078;12.108;2022-10-18T08:37:18;9.63;;;4.65;;
35699;SDS011;21818;51.078;12.108;2022-10-18T08:39:44;6.90;;;4.07;;
35699;SDS011;21818;51.078;12.108;2022-10-18T08:45:22;8.68;;;5.03;;
35699;SDS011;21818;51.078;12.108;2022-10-18T08:47:49;9.05;;;5.68;;
35699;SDS011;21818;51.078;12.108;2022-10-18T08:50:19;10.82;;;5.75;;
35699;SDS011;21818;51.078;12.108;2022-10-18T08:58:03;5.47;;;2.65;;
35699;SDS011;21818;51.078;12.108;2022-10-18T09:03:29;3.97;;;2.33;;
35699;SDS011;21818;51.078;12.108;2022-10-18T09:06:16;6.15;;;2.28;;
35699;SDS011;21818;51.078;12.108;2022-10-18T09:20:20;2.58;;;1.67;;
35699;SDS011;21818;51.078;12.108;2022-10-18T09:31:15;1.80;;;1.30;;
35699;SDS011;21818;51.078;12.108;2022-10-18T09:33:55;2.15;;;1.27;;
35699;SDS011;21818;51.078;12.108;2022-10-18T09:36:26;2.83;;;1.45;;
35699;SDS011;21818;51.078;12.108;2022-10-18T09:39:01;3.38;;;1.70;;
35699;SDS011;21818;51.078;12.108;2022-10-18T09:41:32;3.05;;;1.35;;
35699;SDS011;21818;51.078;12.108;2022-10-18T09:44:05;2.05;;;1.17;;
35699;SDS011;21818;51.078;12.108;2022-10-18T09:46:39;1.60;;;1.27;;
35699;SDS011;21818;51.078;12.108;2022-10-18T09:49:12;2.65;;;1.60;;
35699;SDS011;21818;51.078;12.108;2022-10-18T09:51:48;2.10;;;1.27;;
35699;SDS011;21818;51.078;12.108;2022-10-18T09:54:23;3.13;;;1.50;;
35699;SDS011;21818;51.078;12.108;2022-10-18T09:59:59;2.35;;;1.33;;
35699;SDS011;21818;51.078;12.108;2022-10-18T10:02:27;2.75;;;1.75;;
35699;SDS011;21818;51.078;12.108;2022-10-18T10:04:53;2.95;;;1.35;;
35699;SDS011;21818;51.078;12.108;2022-10-18T10:07:32;1.65;;;1.20;;
35699;SDS011;21818;51.078;12.108;2022-10-18T10:12:37;3.28;;;1.40;;
35699;SDS011;21818;51.078;12.108;2022-10-18T10:15:23;3.28;;;1.15;;
35699;SDS011;21818;51.078;12.108;2022-10-18T10:20:43;2.90;;;1.20;;
35699;SDS011;21818;51.078;12.108;2022-10-18T10:26:01;2.13;;;1.10;;
35699;SDS011;21818;51.078;12.108;2022-10-18T10:28:44;3.28;;;1.38;;
35699;SDS011;21818;51.078;12.108;2022-10-18T10:31:17;2.10;;;1.33;;
35699;SDS011;21818;51.078;12.108;2022-10-18T10:36:26;0.95;;;0.60;;
35699;SDS011;21818;51.078;12.108;2022-10-18T10:39:02;1.58;;;0.95;;
35699;SDS011;21818;51.078;12.108;2022-10-18T10:44:16;1.45;;;0.85;;
35699;SDS011;21818;51.078;12.108;2022-10-18T10:46:47;1.45;;;0.90;;
35699;SDS011;21818;51.078;12.108;2022-10-18T10:49:21;1.67;;;0.95;;
35699;SDS011;21818;51.078;12.108;2022-10-18T10:51:53;1.95;;;1.00;;
35699;SDS011;21818;51.078;12.108;2022-10-18T10:54:24;1.42;;;0.98;;
35699;SDS011;21818;51.078;12.108;2022-10-18T10:59:20;1.63;;;1.00;;
35699;SDS011;21818;51.078;12.108;2022-10-18T11:01:48;2.25;;;1.00;;
35699;SDS011;21818;51.078;12.108;2022-10-18T11:04:26;2.15;;;0.98;;
35699;SDS011;21818;51.078;12.108;2022-10-18T11:12:17;1.88;;;1.17;;
35699;SDS011;21818;51.078;12.108;2022-10-18T11:15:22;1.80;;;1.00;;
35699;SDS011;21818;51.078;12.108;2022-10-18T11:23:37;2.25;;;1.02;;
35699;SDS011;21818;51.078;12.108;2022-10-18T11:40:13;5.45;;;2.63;;
35699;SDS011;21818;51.078;12.108;2022-10-18T11:46:18;7.95;;;2.35;;
35699;SDS011;21818;51.078;12.108;2022-10-18T11:49:02;2.97;;;1.23;;
35699;SDS011;21818;51.078;12.108;2022-10-18T11:57:16;3.22;;;1.48;;
35699;SDS011;21818;51.078;12.108;2022-10-18T12:00:07;4.63;;;2.42;;
35699;SDS011;21818;51.078;12.108;2022-10-18T12:02:44;4.35;;;1.92;;
35699;SDS011;21818;51.078;12.108;2022-10-18T12:05:36;1.65;;;1.55;;
35699;SDS011;21818;51.078;12.108;2022-10-18T12:08:22;4.10;;;1.52;;
35699;SDS011;21818;51.078;12.108;2022-10-18T12:10:55;2.33;;;1.65;;
35699;SDS011;21818;51.078;12.108;2022-10-18T12:13:45;4.68;;;2.22;;
35699;SDS011;21818;51.078;12.108;2022-10-18T12:16:10;5.03;;;2.30;;
35699;SDS011;21818;51.078;12.108;2022-10-18T12:18:48;5.90;;;3.10;;
35699;SDS011;21818;51.078;12.108;2022-10-18T12:21:21;4.93;;;2.28;;
35699;SDS011;21818;51.078;12.108;2022-10-18T12:23:51;3.22;;;2.22;;
35699;SDS011;21818;51.078;12.108;2022-10-18T12:26:37;3.78;;;2.30;;
35699;SDS011;21818;51.078;12.108;2022-10-18T12:29:13;3.70;;;1.92;;
35699;SDS011;21818;51.078;12.108;2022-10-18T12:34:23;2.50;;;1.77;;
35699;SDS011;21818;51.078;12.108;2022-10-18T12:39:51;4.30;;;2.45;;
35699;SDS011;21818;51.078;12.108;2022-10-18T12:42:21;4.38;;;2.40;;
35699;SDS011;21818;51.078;12.108;2022-10-18T12:44:59;5.78;;;1.75;;
35699;SDS011;21818;51.078;12.108;2022-10-18T12:47:30;5.07;;;2.13;;
35699;SDS011;21818;51.078;12.108;2022-10-18T12:50:00;4.13;;;2.33;;
35699;SDS011;21818;51.078;12.108;2022-10-18T12:52:29;2.53;;;1.70;;
35699;SDS011;21818;51.078;12.108;2022-10-18T13:19:30;2.85;;;1.55;;
35699;SDS011;21818;51.078;12.108;2022-10-18T13:30:52;4.82;;;1.70;;
35699;SDS011;21818;51.078;12.108;2022-10-18T13:33:38;2.15;;;1.20;;
35699;SDS011;21818;51.078;12.108;2022-10-18T13:36:18;2.00;;;1.30;;
35699;SDS011;21818;51.078;12.108;2022-10-18T13:41:31;2.17;;;1.25;;
35699;SDS011;21818;51.078;12.108;2022-10-18T14:00:54;2.38;;;1.02;;
35699;SDS011;21818;51.078;12.108;2022-10-18T14:06:44;1.27;;;0.98;;
35699;SDS011;21818;51.078;12.108;2022-10-18T14:09:30;1.77;;;1.00;;
35699;SDS011;21818;51.078;12.108;2022-10-18T14:12:29;1.60;;;1.20;;
35699;SDS011;21818;51.078;12.108;2022-10-18T14:15:06;1.88;;;0.90;;
35699;SDS011;21818;51.078;12.108;2022-10-18T14:17:57;1.50;;;1.00;;
35699;SDS011;21818;51.078;12.108;2022-10-18T14:20:30;2.63;;;1.10;;
35699;SDS011;21818;51.078;12.108;2022-10-18T14:23:01;1.88;;;1.05;;
35699;SDS011;21818;51.078;12.108;2022-10-18T14:25:37;1.83;;;0.95;;
35699;SDS011;21818;51.078;12.108;2022-10-18T14:28:16;1.75;;;0.90;;
35699;SDS011;21818;51.078;12.108;2022-10-18T14:33:27;1.98;;;1.05;;
35699;SDS011;21818;51.078;12.108;2022-10-18T14:38:33;1.30;;;1.05;;
35699;SDS011;21818;51.078;12.108;2022-10-18T14:43:44;6.18;;;2.50;;
35699;SDS011;21818;51.078;12.108;2022-10-18T14:51:17;6.75;;;2.78;;
35699;SDS011;21818;51.078;12.108;2022-10-18T14:53:43;2.88;;;1.70;;
35699;SDS011;21818;51.078;12.108;2022-10-18T14:56:21;6.18;;;2.92;;
35699;SDS011;21818;51.078;12.108;2022-10-18T14:58:48;5.05;;;2.55;;
35699;SDS011;21818;51.078;12.108;2022-10-18T15:01:15;2.78;;;1.90;;
35699;SDS011;21818;51.078;12.108;2022-10-18T15:03:43;6.03;;;2.60;;
35699;SDS011;21818;51.078;12.108;2022-10-18T15:06:17;3.35;;;2.25;;
35699;SDS011;21818;51.078;12.108;2022-10-18T15:08:43;3.72;;;2.38;;
35699;SDS011;21818;51.078;12.108;2022-10-18T15:11:12;2.88;;;2.45;;
35699;SDS011;21818;51.078;12.108;2022-10-18T15:13:50;4.90;;;3.20;;
35699;SDS011;21818;51.078;12.108;2022-10-18T15:16:18;3.50;;;2.60;;
35699;SDS011;21818;51.078;12.108;2022-10-18T15:21:33;5.50;;;2.97;;
35699;SDS011;21818;51.078;12.108;2022-10-18T15:24:18;5.45;;;3.50;;
35699;SDS011;21818;51.078;12.108;2022-10-18T15:26:52;4.80;;;3.35;;
35699;SDS011;21818;51.078;12.108;2022-10-18T15:29:24;4.82;;;2.92;;
35699;SDS011;21818;51.078;12.108;2022-10-18T15:31:51;5.38;;;4.50;;
35699;SDS011;21818;51.078;12.108;2022-10-18T15:34:21;4.43;;;2.47;;
35699;SDS011;21818;51.078;12.108;2022-10-18T15:36:50;3.42;;;2.47;;
35699;SDS011;21818;51.078;12.108;2022-10-18T15:39:21;5.80;;;3.17;;
35699;SDS011;21818;51.078;12.108;2022-10-18T15:44:25;7.70;;;3.88;;
35699;SDS011;21818;51.078;12.108;2022-10-18T15:47:08;7.47;;;4.78;;
35699;SDS011;21818;51.078;12.108;2022-10-18T15:54:57;6.32;;;3.30;;
35699;SDS011;21818;51.078;12.108;2022-10-18T15:57:23;8.23;;;5.50;;
35699;SDS011;21818;51.078;12.108;2022-10-18T15:59:59;4.38;;;3.80;;
35699;SDS011;21818;51.078;12.108;2022-10-18T16:02:29;4.18;;;2.90;;
35699;SDS011;21818;51.078;12.108;2022-10-18T16:04:54;6.60;;;3.35;;
35699;SDS011;21818;51.078;12.108;2022-10-18T16:09:51;10.98;;;7.80;;
35699;SDS011;21818;51.078;12.108;2022-10-18T16:12:16;7.50;;;5.43;;
35699;SDS011;21818;51.078;12.108;2022-10-18T16:14:42;5.45;;;4.70;;
35699;SDS011;21818;51.078;12.108;2022-10-18T16:17:08;5.38;;;4.03;;
35699;SDS011;21818;51.078;12.108;2022-10-18T16:19:40;6.88;;;4.45;;
35699;SDS011;21818;51.078;12.108;2022-10-18T16:22:09;6.88;;;4.30;;
35699;SDS011;21818;51.078;12.108;2022-10-18T16:24:36;4.50;;;3.92;;
35699;SDS011;21818;51.078;12.108;2022-10-18T16:27:02;5.80;;;4.60;;
35699;SDS011;21818;51.078;12.108;2022-10-18T16:29:28;6.35;;;4.43;;
35699;SDS011;21818;51.078;12.108;2022-10-18T16:31:56;7.53;;;5.28;;
35699;SDS011;21818;51.078;12.108;2022-10-18T16:34:22;7.00;;;5.70;;
35699;SDS011;21818;51.078;12.108;2022-10-18T16:36:50;8.45;;;5.93;;
35699;SDS011;21818;51.078;12.108;2022-10-18T16:39:17;7.97;;;5.80;;
35699;SDS011;21818;51.078;12.108;2022-10-18T16:41:44;7.68;;;5.85;;
35699;SDS011;21818;51.078;12.108;2022-10-18T16:44:10;10.20;;;6.72;;
35699;SDS011;21818;51.078;12.108;2022-10-18T16:46:36;6.90;;;5.80;;
35699;SDS011;21818;51.078;12.108;2022-10-18T16:49:02;6.97;;;5.55;;
35699;SDS011;21818;51.078;12.108;2022-10-18T16:51:29;6.97;;;5.72;;
35699;SDS011;21818;51.078;12.108;2022-10-18T16:53:54;7.93;;;5.10;;
35699;SDS011;21818;51.078;12.108;2022-10-18T16:58:48;6.57;;;5.45;;
35699;SDS011;21818;51.078;12.108;2022-10-18T17:01:15;6.15;;;4.75;;
35699;SDS011;21818;51.078;12.108;2022-10-18T17:03:42;7.22;;;5.53;;
35699;SDS011;21818;51.078;12.108;2022-10-18T17:06:16;7.70;;;6.03;;
35699;SDS011;21818;51.078;12.108;2022-10-18T17:08:44;8.18;;;6.03;;
35699;SDS011;21818;51.078;12.108;2022-10-18T17:11:10;5.72;;;4.40;;
35699;SDS011;21818;51.078;12.108;2022-10-18T17:13:37;7.78;;;5.82;;
35699;SDS011;21818;51.078;12.108;2022-10-18T17:16:03;7.43;;;5.18;;
35699;SDS011;21818;51.078;12.108;2022-10-18T17:18:29;6.75;;;5.40;;
35699;SDS011;21818;51.078;12.108;2022-10-18T17:20:55;7.95;;;5.65;;
35699;SDS011;21818;51.078;12.108;2022-10-18T17:23:24;9.43;;;5.43;;
35699;SDS011;21818;51.078;12.108;2022-10-18T17:25:50;6.13;;;4.97;;
35699;SDS011;21818;51.078;12.108;2022-10-18T17:28:16;7.00;;;5.70;;
35699;SDS011;21818;51.078;12.108;2022-10-18T17:30:43;7.57;;;5.53;;
35699;SDS011;21818;51.078;12.108;2022-10-18T17:33:09;8.88;;;5.63;;
35699;SDS011;21818;51.078;12.108;2022-10-18T17:35:35;8.77;;;5.93;;
35699;SDS011;21818;51.078;12.108;2022-10-18T17:38:01;7.70;;;4.65;;
35699;SDS011;21818;51.078;12.108;2022-10-18T17:40:28;6.57;;;4.63;;
35699;SDS011;21818;51.078;12.108;2022-10-18T17:42:54;7.72;;;5.47;;
35699;SDS011;21818;51.078;12.108;2022-10-18T17:45:20;4.95;;;3.92;;
35699;SDS011;21818;51.078;12.108;2022-10-18T17:47:46;5.50;;;3.90;;
35699;SDS011;21818;51.078;12.108;2022-10-18T17:50:12;5.43;;;3.95;;
35699;SDS011;21818;51.078;12.108;2022-10-18T17:52:40;4.35;;;3.75;;
35699;SDS011;21818;51.078;12.108;2022-10-18T17:55:07;4.82;;;3.63;;
35699;SDS011;21818;51.078;12.108;2022-10-18T17:57:33;6.32;;;3.70;;
35699;SDS011;21818;51.078;12.108;2022-10-18T17:59:59;6.78;;;3.40;;
35699;SDS011;21818;51.078;12.108;2022-10-18T18:02:26;5.07;;;4.10;;
35699;SDS011;21818;51.078;12.108;2022-10-18T18:04:53;5.18;;;4.03;;
35699;SDS011;21818;51.078;12.108;2022-10-18T18:07:18;6.30;;;3.97;;